LSZG Airport Information

Runway Information
Runway 07 Length 0 ft width 0 ft
Elevation 1407 ft Threshold 0 ft Heading 0
Runway 25 Length 0 ft Width 0 ft
Elevation 1407 ft Threshold 0 ft Heading 0
Runway 07C Length 3281 ft width 75 ft
Elevation 1407 ft Threshold 443 ft Heading 66
Runway 25C Length 3281 ft Width 75 ft
Elevation 1405 ft Threshold 0 ft Heading 246
Runway 07L Length 1640 ft width 98 ft
Elevation 0 ft Threshold 213 ft Heading 66
Runway 25R Length 1640 ft Width 98 ft
Elevation 0 ft Threshold 85 ft Heading 246
Runway 07R Length 2297 ft width 66 ft
Elevation 0 ft Threshold 459 ft Heading 70
Runway 25L Length 2297 ft Width 66 ft
Elevation 0 ft Threshold 0 ft Heading 250
Airport Frequencies
Type APP Name Bern Appro Frequency 127.325 MHZ
Type ATIS Name ATIS Frequency 121.1 MHZ
Type GND Name GND Frequency 121.8 MHZ
Type TWR Name ge, en Frequency 120.1 MHZ
Airport Navaids
Type VOR-DME Name Grenchen Frequency 115450 KHZ
Type NDB Name Grenchen Frequency 326 KHZ
Airport Weather Information & NOTAM
ADDS - METARS form results

(0238 UTC 19 September 2021)
Data provider http://aviationweather.gov/metar/data/
 
METAR text: LSZG 190220Z AUTO 17001KT 9999 SCT060 12/11 Q1012
Conditions at: LSZG (GRENCHEN , CH) observed 0220 UTC 19 September 2021
Temperature: 12.0°C (54°F)
Dewpoint: 11.0°C (52°F) [RH = 94%]
Pressure (altimeter): 29.88 inches Hg (1012.0 mb)
Winds: from the S (170 degrees) at 1 MPH (1 knots; 0.5 m/s)
Visibility: 6 or more miles (10+ km)
Ceiling: at least 12,000 feet AGL
Clouds: scattered clouds at 6000 feet AGL
Weather: no significant weather observed at this time

METAR text: LSZG 190150Z AUTO VRB01KT 9999 NCD 12/11 Q1012
Conditions at: LSZG (GRENCHEN , CH) observed 0150 UTC 19 September 2021
Temperature: 12.0°C (54°F)
Dewpoint: 11.0°C (52°F) [RH = 94%]
Pressure (altimeter): 29.88 inches Hg (1012.0 mb)
Winds: variable direction winds at 1 MPH (1 knots; 0.5 m/s)
Visibility: 6 or more miles (10+ km)
Ceiling: at least 12,000 feet AGL
Clouds: sky clear below 12,000 feet AGL
Weather: no significant weather observed at this time